AFL370 URWW-URKK
Flight info
| Callsign | AFL370 |
|---|---|
| Flight time | 1h 2m |
| Altitude | 37000 |
| Route | GAMTU2V GAMTU G364 OBETI G900 ER B145 SUDIR N166 ND ND6Y |
| Aircraft | B738/M-SDE2E3FGHIRWXY/LB1 |
Departure
| Time | 2026-05-07 21:06 |
|---|---|
| Airport | Volgograd International Airport (URWW) |
Arrival
| Time | 2026-05-07 22:09 |
|---|---|
| Airport | Krasnodar Pashkovsky International Airport (URKK) |
| Time | Latitude | Longitude | Altitude | Speed | Heading |
|---|---|---|---|---|---|
| 2026-05-07 20:36 | 48.79002 | 44.35224 | 419 ft | 0 kts | 340° |
| 2026-05-07 20:53 | 48.79002 | 44.35225 | 419 ft | 0 kts | 340° |
| 2026-05-07 20:56 | 48.78998 | 44.35227 | 409 ft | 3 kts | 341° |
| 2026-05-07 20:56 | 48.78975 | 44.35234 | 416 ft | 3 kts | 3° |
| 2026-05-07 20:56 | 48.78954 | 44.35226 | 418 ft | 3 kts | 40° |
| 2026-05-07 20:57 | 48.78941 | 44.35199 | 417 ft | 3 kts | 67° |
| 2026-05-07 20:57 | 48.78936 | 44.35184 | 408 ft | 2 kts | 69° |
| 2026-05-07 21:00 | 48.78947 | 44.35228 | 410 ft | 2 kts | 70° |
| 2026-05-07 21:00 | 48.78953 | 44.35251 | 419 ft | 2 kts | 70° |
| 2026-05-07 21:00 | 48.78959 | 44.35276 | 419 ft | 3 kts | 69° |
| 2026-05-07 21:01 | 48.78966 | 44.35303 | 410 ft | 0 kts | 69° |
| 2026-05-07 21:01 | 48.78966 | 44.35304 | 410 ft | 1 kts | 69° |
| 2026-05-07 21:01 | 48.78972 | 44.35327 | 415 ft | 3 kts | 69° |
| 2026-05-07 21:01 | 48.78979 | 44.35353 | 414 ft | 3 kts | 63° |
| 2026-05-07 21:02 | 48.78987 | 44.35380 | 414 ft | 3 kts | 54° |
| 2026-05-07 21:02 | 48.79006 | 44.35380 | 414 ft | 3 kts | 333° |
| 2026-05-07 21:02 | 48.79009 | 44.35351 | 419 ft | 3 kts | 252° |
| 2026-05-07 21:02 | 48.78993 | 44.35324 | 411 ft | 4 kts | 221° |
| 2026-05-07 21:03 | 48.78963 | 44.35281 | 419 ft | 7 kts | 234° |
| 2026-05-07 21:03 | 48.78943 | 44.35217 | 418 ft | 7 kts | 246° |
| 2026-05-07 21:03 | 48.78925 | 44.35153 | 419 ft | 7 kts | 249° |
| 2026-05-07 21:03 | 48.78892 | 44.35112 | 417 ft | 8 kts | 181° |
| 2026-05-07 21:04 | 48.78793 | 44.35155 | 415 ft | 20 kts | 162° |
| 2026-05-07 21:04 | 48.78700 | 44.35201 | 413 ft | 0 kts | 162° |
| 2026-05-07 21:05 | 48.78649 | 44.35225 | 414 ft | 16 kts | 162° |
| 2026-05-07 21:05 | 48.78531 | 44.35175 | 414 ft | 15 kts | 240° |
| 2026-05-07 21:05 | 48.78492 | 44.35036 | 422 ft | 14 kts | 247° |
| 2026-05-07 21:06 | 48.78409 | 44.34767 | 418 ft | 62 kts | 244° |
| 2026-05-07 21:06 | 48.78110 | 44.33815 | 437 ft | 136 kts | 245° |
| 2026-05-07 21:06 | 48.77618 | 44.32284 | 680 ft | 179 kts | 245° |
| 2026-05-07 21:06 | 48.77063 | 44.30553 | 1553 ft | 188 kts | 247° |
| 2026-05-07 21:07 | 48.76520 | 44.28857 | 2678 ft | 179 kts | 247° |
| 2026-05-07 21:07 | 48.75943 | 44.27025 | 2997 ft | 209 kts | 247° |
| 2026-05-07 21:07 | 48.75271 | 44.24884 | 3013 ft | 238 kts | 246° |
| 2026-05-07 21:07 | 48.74644 | 44.22536 | 2985 ft | 241 kts | 261° |
| 2026-05-07 21:08 | 48.74805 | 44.20074 | 3104 ft | 237 kts | 294° |
| 2026-05-07 21:08 | 48.75807 | 44.18115 | 3669 ft | 238 kts | 323° |
| 2026-05-07 21:08 | 48.77330 | 44.17116 | 4192 ft | 249 kts | 352° |
| 2026-05-07 21:08 | 48.79082 | 44.17402 | 4719 ft | 262 kts | 21° |
| 2026-05-07 21:09 | 48.80555 | 44.19015 | 5607 ft | 265 kts | 50° |
| 2026-05-07 21:09 | 48.81452 | 44.21462 | 6552 ft | 268 kts | 65° |
| 2026-05-07 21:09 | 48.82134 | 44.24115 | 7373 ft | 272 kts | 68° |
| 2026-05-07 21:09 | 48.82777 | 44.26787 | 8204 ft | 274 kts | 68° |
| 2026-05-07 21:10 | 48.83442 | 44.29515 | 9057 ft | 277 kts | 67° |
| 2026-05-07 21:10 | 48.84127 | 44.32261 | 9923 ft | 279 kts | 66° |
| 2026-05-07 21:10 | 48.84827 | 44.35019 | 10694 ft | 282 kts | 66° |
| 2026-05-07 21:10 | 48.85543 | 44.37804 | 11460 ft | 285 kts | 66° |
| 2026-05-07 21:11 | 48.86272 | 44.40621 | 12231 ft | 288 kts | 66° |
| 2026-05-07 21:11 | 48.87011 | 44.43464 | 13002 ft | 291 kts | 66° |
| 2026-05-07 21:11 | 48.88504 | 44.49250 | 14462 ft | 298 kts | 70° |
| 2026-05-07 21:12 | 48.88744 | 44.52395 | 15125 ft | 307 kts | 94° |
| 2026-05-07 21:12 | 48.88080 | 44.55498 | 15823 ft | 315 kts | 118° |
| 2026-05-07 21:12 | 48.86582 | 44.57962 | 16492 ft | 326 kts | 144° |
| 2026-05-07 21:12 | 48.84482 | 44.59318 | 17171 ft | 333 kts | 163° |
| 2026-05-07 21:13 | 48.82246 | 44.60147 | 17839 ft | 337 kts | 165° |
| 2026-05-07 21:13 | 48.79949 | 44.60958 | 18460 ft | 341 kts | 165° |
| 2026-05-07 21:13 | 48.77631 | 44.61808 | 19034 ft | 344 kts | 164° |
| 2026-05-07 21:13 | 48.75292 | 44.62641 | 19617 ft | 348 kts | 170° |
| 2026-05-07 21:14 | 48.72861 | 44.62501 | 20152 ft | 355 kts | 195° |
| 2026-05-07 21:14 | 48.70633 | 44.60922 | 20735 ft | 356 kts | 217° |
| 2026-05-07 21:14 | 48.68890 | 44.58271 | 21319 ft | 356 kts | 232° |
| 2026-05-07 21:14 | 48.67340 | 44.55330 | 21889 ft | 359 kts | 234° |
| 2026-05-07 21:15 | 48.65804 | 44.52319 | 22425 ft | 363 kts | 234° |
| 2026-05-07 21:15 | 48.64251 | 44.49285 | 22983 ft | 366 kts | 234° |
| 2026-05-07 21:15 | 48.62696 | 44.46280 | 23551 ft | 369 kts | 233° |
| 2026-05-07 21:15 | 48.61098 | 44.43226 | 24017 ft | 372 kts | 233° |
| 2026-05-07 21:16 | 48.59480 | 44.40158 | 24487 ft | 374 kts | 233° |
| 2026-05-07 21:16 | 48.57850 | 44.37076 | 24971 ft | 376 kts | 233° |
| 2026-05-07 21:16 | 48.56212 | 44.33988 | 25446 ft | 378 kts | 233° |
| 2026-05-07 21:16 | 48.54561 | 44.30874 | 25886 ft | 381 kts | 233° |
| 2026-05-07 21:17 | 48.52908 | 44.27664 | 26007 ft | 394 kts | 234° |
| 2026-05-07 21:17 | 48.51223 | 44.24324 | 26118 ft | 406 kts | 234° |
| 2026-05-07 21:17 | 48.49497 | 44.20884 | 26222 ft | 417 kts | 234° |
| 2026-05-07 21:17 | 48.47720 | 44.17351 | 26321 ft | 428 kts | 234° |
| 2026-05-07 21:18 | 48.45894 | 44.13732 | 26410 ft | 439 kts | 234° |
| 2026-05-07 21:18 | 48.44045 | 44.10081 | 26494 ft | 449 kts | 234° |
| 2026-05-07 21:18 | 48.42131 | 44.06313 | 26570 ft | 458 kts | 233° |
| 2026-05-07 21:18 | 48.40174 | 44.02470 | 26652 ft | 467 kts | 233° |
| 2026-05-07 21:19 | 48.38177 | 43.98556 | 26709 ft | 475 kts | 233° |
| 2026-05-07 21:19 | 48.36150 | 43.94589 | 26784 ft | 482 kts | 233° |
| 2026-05-07 21:19 | 48.34093 | 43.90568 | 26929 ft | 487 kts | 233° |
| 2026-05-07 21:19 | 48.32023 | 43.86527 | 27193 ft | 489 kts | 233° |
| 2026-05-07 21:20 | 48.29954 | 43.82496 | 27627 ft | 486 kts | 233° |
| 2026-05-07 21:20 | 48.27894 | 43.78486 | 28112 ft | 483 kts | 233° |
| 2026-05-07 21:20 | 48.25847 | 43.74506 | 28567 ft | 481 kts | 233° |
| 2026-05-07 21:20 | 48.23804 | 43.70539 | 28940 ft | 481 kts | 233° |
| 2026-05-07 21:21 | 48.21758 | 43.66572 | 29327 ft | 480 kts | 233° |
| 2026-05-07 21:21 | 48.19769 | 43.62652 | 29733 ft | 478 kts | 237° |
| 2026-05-07 21:21 | 48.18072 | 43.58377 | 30115 ft | 476 kts | 243° |
| 2026-05-07 21:21 | 48.16565 | 43.53972 | 30443 ft | 475 kts | 245° |
| 2026-05-07 21:22 | 48.15109 | 43.49528 | 30718 ft | 475 kts | 245° |
| 2026-05-07 21:22 | 48.13648 | 43.45082 | 30991 ft | 476 kts | 245° |
| 2026-05-07 21:22 | 48.12167 | 43.40663 | 31285 ft | 476 kts | 245° |
| 2026-05-07 21:22 | 48.10659 | 43.36255 | 31581 ft | 475 kts | 244° |
| 2026-05-07 21:23 | 48.09135 | 43.31866 | 31872 ft | 475 kts | 244° |
| 2026-05-07 21:23 | 48.07602 | 43.27484 | 32157 ft | 475 kts | 244° |
| 2026-05-07 21:23 | 48.06065 | 43.23110 | 32448 ft | 475 kts | 244° |
| 2026-05-07 21:23 | 48.04530 | 43.18743 | 32724 ft | 475 kts | 244° |
| 2026-05-07 21:24 | 48.02991 | 43.14371 | 32996 ft | 475 kts | 244° |
| 2026-05-07 21:24 | 48.01454 | 43.10003 | 33252 ft | 475 kts | 244° |
| 2026-05-07 21:24 | 47.99913 | 43.05630 | 33512 ft | 476 kts | 244° |
| 2026-05-07 21:24 | 47.98393 | 43.01321 | 33785 ft | 475 kts | 244° |
| 2026-05-07 21:25 | 47.96852 | 42.96964 | 34058 ft | 475 kts | 244° |
| 2026-05-07 21:25 | 47.95299 | 42.92615 | 34292 ft | 474 kts | 243° |
| 2026-05-07 21:25 | 47.93735 | 42.88291 | 34540 ft | 473 kts | 243° |
| 2026-05-07 21:25 | 47.92164 | 42.83979 | 34793 ft | 472 kts | 243° |
| 2026-05-07 21:26 | 47.90596 | 42.79685 | 35027 ft | 472 kts | 243° |
| 2026-05-07 21:26 | 47.89025 | 42.75385 | 35228 ft | 472 kts | 243° |
| 2026-05-07 21:26 | 47.87457 | 42.71093 | 35458 ft | 471 kts | 243° |
| 2026-05-07 21:26 | 47.85892 | 42.66812 | 35686 ft | 471 kts | 243° |
| 2026-05-07 21:27 | 47.84327 | 42.62536 | 35891 ft | 470 kts | 243° |
| 2026-05-07 21:27 | 47.82762 | 42.58264 | 36082 ft | 470 kts | 242° |
| 2026-05-07 21:27 | 47.81195 | 42.53992 | 36283 ft | 470 kts | 242° |
| 2026-05-07 21:27 | 47.79649 | 42.49786 | 36518 ft | 469 kts | 242° |
| 2026-05-07 21:28 | 47.78085 | 42.45535 | 36691 ft | 469 kts | 242° |
| 2026-05-07 21:28 | 47.76514 | 42.41275 | 36846 ft | 470 kts | 242° |
| 2026-05-07 21:28 | 47.74944 | 42.37024 | 37000 ft | 468 kts | 242° |
| 2026-05-07 21:28 | 47.73375 | 42.32783 | 37039 ft | 469 kts | 242° |
| 2026-05-07 21:29 | 47.70219 | 42.24269 | 37055 ft | 472 kts | 242° |
| 2026-05-07 21:29 | 47.67038 | 42.15716 | 37052 ft | 474 kts | 242° |
| 2026-05-07 21:30 | 47.63863 | 42.07209 | 37053 ft | 475 kts | 242° |
| 2026-05-07 21:30 | 47.60659 | 41.98651 | 37050 ft | 475 kts | 242° |
| 2026-05-07 21:31 | 47.57453 | 41.90115 | 37059 ft | 474 kts | 242° |
| 2026-05-07 21:31 | 47.54248 | 41.81605 | 37054 ft | 472 kts | 242° |
| 2026-05-07 21:32 | 47.51047 | 41.73132 | 37062 ft | 471 kts | 242° |
| 2026-05-07 21:32 | 47.47788 | 41.64739 | 37059 ft | 471 kts | 236° |
| 2026-05-07 21:33 | 47.43414 | 41.57666 | 37064 ft | 471 kts | 218° |
| 2026-05-07 21:33 | 47.38138 | 41.51932 | 37073 ft | 471 kts | 216° |
| 2026-05-07 21:34 | 47.32832 | 41.46280 | 37077 ft | 470 kts | 217° |
| 2026-05-07 21:34 | 47.27552 | 41.40585 | 37085 ft | 470 kts | 217° |
| 2026-05-07 21:35 | 47.22326 | 41.34908 | 37089 ft | 470 kts | 217° |
| 2026-05-07 21:35 | 47.17067 | 41.29201 | 37090 ft | 470 kts | 217° |
| 2026-05-07 21:36 | 47.11804 | 41.23506 | 37093 ft | 470 kts | 217° |
| 2026-05-07 21:36 | 47.06538 | 41.17825 | 37095 ft | 470 kts | 217° |
| 2026-05-07 21:37 | 47.01267 | 41.12153 | 37096 ft | 470 kts | 217° |
| 2026-05-07 21:37 | 46.96029 | 41.06531 | 37098 ft | 470 kts | 217° |
| 2026-05-07 21:38 | 46.90751 | 41.00879 | 37103 ft | 470 kts | 217° |
| 2026-05-07 21:38 | 46.85465 | 40.95232 | 37104 ft | 471 kts | 217° |
| 2026-05-07 21:39 | 46.80178 | 40.89597 | 37108 ft | 471 kts | 217° |
| 2026-05-07 21:39 | 46.74917 | 40.83903 | 37113 ft | 471 kts | 218° |
| 2026-05-07 21:40 | 46.69724 | 40.78180 | 37116 ft | 471 kts | 218° |
| 2026-05-07 21:40 | 46.64489 | 40.72443 | 37118 ft | 471 kts | 217° |
| 2026-05-07 21:41 | 46.59246 | 40.66730 | 37121 ft | 471 kts | 217° |
| 2026-05-07 21:41 | 46.54642 | 40.62503 | 37134 ft | 471 kts | 210° |
| 2026-05-07 21:42 | 46.48900 | 40.57907 | 37131 ft | 471 kts | 209° |
| 2026-05-07 21:42 | 46.43176 | 40.53263 | 37137 ft | 471 kts | 210° |
| 2026-05-07 21:43 | 46.36556 | 40.47821 | 37139 ft | 471 kts | 208° |
| 2026-05-07 21:43 | 46.31455 | 40.44955 | 37148 ft | 470 kts | 195° |
| 2026-05-07 21:44 | 46.25155 | 40.42648 | 37146 ft | 470 kts | 194° |
| 2026-05-07 21:44 | 46.18807 | 40.40345 | 37149 ft | 470 kts | 194° |
| 2026-05-07 21:45 | 46.12467 | 40.37973 | 37082 ft | 472 kts | 194° |
| 2026-05-07 21:45 | 46.09265 | 40.36763 | 36501 ft | 478 kts | 194° |
| 2026-05-07 21:45 | 46.06063 | 40.35552 | 35921 ft | 475 kts | 194° |
| 2026-05-07 21:46 | 46.02867 | 40.34344 | 35244 ft | 475 kts | 194° |
| 2026-05-07 21:46 | 45.99666 | 40.33137 | 34573 ft | 476 kts | 194° |
| 2026-05-07 21:46 | 45.96455 | 40.31929 | 33809 ft | 478 kts | 194° |
| 2026-05-07 21:46 | 45.93234 | 40.30719 | 33019 ft | 479 kts | 194° |
| 2026-05-07 21:47 | 45.90054 | 40.29526 | 32269 ft | 479 kts | 194° |
| 2026-05-07 21:47 | 45.86823 | 40.28316 | 31513 ft | 480 kts | 194° |
| 2026-05-07 21:47 | 45.83590 | 40.27099 | 30734 ft | 481 kts | 195° |
| 2026-05-07 21:47 | 45.80528 | 40.25195 | 29849 ft | 483 kts | 213° |
| 2026-05-07 21:48 | 45.77994 | 40.22069 | 28943 ft | 481 kts | 230° |
| 2026-05-07 21:48 | 45.76101 | 40.18122 | 27812 ft | 484 kts | 244° |
| 2026-05-07 21:48 | 45.74976 | 40.13602 | 26829 ft | 482 kts | 259° |
| 2026-05-07 21:48 | 45.74394 | 40.08877 | 25918 ft | 482 kts | 262° |
| 2026-05-07 21:49 | 45.73890 | 40.04168 | 25243 ft | 476 kts | 263° |
| 2026-05-07 21:49 | 45.73400 | 39.99501 | 24563 ft | 472 kts | 262° |
| 2026-05-07 21:49 | 45.72900 | 39.94881 | 23885 ft | 468 kts | 262° |
| 2026-05-07 21:49 | 45.72384 | 39.90301 | 23088 ft | 465 kts | 262° |
| 2026-05-07 21:50 | 45.71863 | 39.85823 | 22382 ft | 460 kts | 261° |
| 2026-05-07 21:50 | 45.71332 | 39.81343 | 21707 ft | 454 kts | 261° |
| 2026-05-07 21:50 | 45.70801 | 39.76915 | 21022 ft | 449 kts | 261° |
| 2026-05-07 21:50 | 45.70273 | 39.72540 | 20370 ft | 445 kts | 261° |
| 2026-05-07 21:51 | 45.69750 | 39.68200 | 19712 ft | 440 kts | 261° |
| 2026-05-07 21:51 | 45.69230 | 39.63904 | 19068 ft | 436 kts | 261° |
| 2026-05-07 21:51 | 45.68715 | 39.59650 | 18394 ft | 433 kts | 261° |
| 2026-05-07 21:51 | 45.68200 | 39.55412 | 17641 ft | 430 kts | 261° |
| 2026-05-07 21:52 | 45.67689 | 39.51221 | 16961 ft | 426 kts | 261° |
| 2026-05-07 21:52 | 45.67182 | 39.47070 | 16311 ft | 421 kts | 261° |
| 2026-05-07 21:52 | 45.66679 | 39.42965 | 15680 ft | 417 kts | 261° |
| 2026-05-07 21:52 | 45.66179 | 39.38903 | 15058 ft | 413 kts | 260° |
| 2026-05-07 21:53 | 45.65419 | 39.35024 | 14428 ft | 411 kts | 244° |
| 2026-05-07 21:53 | 45.63788 | 39.31659 | 13827 ft | 406 kts | 225° |
| 2026-05-07 21:53 | 45.61634 | 39.29208 | 13213 ft | 400 kts | 208° |
| 2026-05-07 21:53 | 45.59165 | 39.27458 | 12619 ft | 394 kts | 204° |
| 2026-05-07 21:54 | 45.56686 | 39.25808 | 11987 ft | 391 kts | 204° |
| 2026-05-07 21:54 | 45.54231 | 39.24188 | 11442 ft | 386 kts | 204° |
| 2026-05-07 21:54 | 45.51847 | 39.22605 | 11311 ft | 370 kts | 204° |
| 2026-05-07 21:54 | 45.49557 | 39.21072 | 11146 ft | 357 kts | 204° |
| 2026-05-07 21:55 | 45.47348 | 39.19585 | 10997 ft | 345 kts | 204° |
| 2026-05-07 21:55 | 45.45215 | 39.18144 | 10852 ft | 334 kts | 204° |
| 2026-05-07 21:55 | 45.43151 | 39.16746 | 10717 ft | 323 kts | 204° |
| 2026-05-07 21:55 | 45.41151 | 39.15392 | 10588 ft | 313 kts | 204° |
| 2026-05-07 21:56 | 45.39214 | 39.14081 | 10457 ft | 304 kts | 204° |
| 2026-05-07 21:56 | 45.37331 | 39.12806 | 10334 ft | 295 kts | 204° |
| 2026-05-07 21:56 | 45.35525 | 39.11584 | 10211 ft | 287 kts | 204° |
| 2026-05-07 21:56 | 45.33733 | 39.10373 | 9949 ft | 285 kts | 204° |
| 2026-05-07 21:57 | 45.31950 | 39.09170 | 9660 ft | 282 kts | 204° |
| 2026-05-07 21:57 | 45.30182 | 39.07977 | 9373 ft | 280 kts | 204° |
| 2026-05-07 21:57 | 45.28426 | 39.06793 | 9090 ft | 279 kts | 204° |
| 2026-05-07 21:57 | 45.26680 | 39.05617 | 8811 ft | 277 kts | 204° |
| 2026-05-07 21:58 | 45.24948 | 39.04450 | 8531 ft | 275 kts | 204° |
| 2026-05-07 21:58 | 45.23226 | 39.03290 | 8258 ft | 273 kts | 204° |
| 2026-05-07 21:58 | 45.21512 | 39.02137 | 7984 ft | 272 kts | 204° |
| 2026-05-07 21:58 | 45.19809 | 39.00992 | 7709 ft | 270 kts | 204° |
| 2026-05-07 21:59 | 45.18116 | 38.99854 | 7440 ft | 269 kts | 204° |
| 2026-05-07 21:59 | 45.16451 | 38.98736 | 7172 ft | 268 kts | 204° |
| 2026-05-07 21:59 | 45.14773 | 38.97610 | 6902 ft | 266 kts | 204° |
| 2026-05-07 21:59 | 45.13100 | 38.96488 | 6628 ft | 265 kts | 204° |
| 2026-05-07 22:00 | 45.11437 | 38.95373 | 6350 ft | 264 kts | 204° |
| 2026-05-07 22:00 | 45.09778 | 38.94262 | 6069 ft | 263 kts | 204° |
| 2026-05-07 22:00 | 45.08129 | 38.93158 | 5794 ft | 261 kts | 204° |
| 2026-05-07 22:00 | 45.06492 | 38.92062 | 5533 ft | 260 kts | 205° |
| 2026-05-07 22:01 | 45.04863 | 38.90973 | 5266 ft | 258 kts | 205° |
| 2026-05-07 22:01 | 45.03243 | 38.89891 | 4991 ft | 257 kts | 206° |
| 2026-05-07 22:01 | 45.01629 | 38.88814 | 4701 ft | 256 kts | 206° |
| 2026-05-07 22:01 | 45.00007 | 38.87798 | 4405 ft | 255 kts | 197° |
| 2026-05-07 22:02 | 44.98272 | 38.87696 | 4086 ft | 256 kts | 167° |
| 2026-05-07 22:02 | 44.96682 | 38.88720 | 3960 ft | 250 kts | 147° |
| 2026-05-07 22:02 | 44.95333 | 38.90146 | 3895 ft | 234 kts | 143° |
| 2026-05-07 22:02 | 44.94111 | 38.91514 | 3762 ft | 215 kts | 143° |
| 2026-05-07 22:03 | 44.92987 | 38.92761 | 3636 ft | 197 kts | 143° |
| 2026-05-07 22:03 | 44.92054 | 38.94088 | 3506 ft | 187 kts | 120° |
| 2026-05-07 22:03 | 44.91715 | 38.95771 | 3367 ft | 174 kts | 94° |
| 2026-05-07 22:03 | 44.91915 | 38.97428 | 3082 ft | 170 kts | 69° |
| 2026-05-07 22:04 | 44.92556 | 38.98801 | 2941 ft | 167 kts | 53° |
| 2026-05-07 22:04 | 44.93261 | 39.00089 | 2809 ft | 161 kts | 54° |
| 2026-05-07 22:04 | 44.93944 | 39.01348 | 2640 ft | 164 kts | 53° |
| 2026-05-07 22:04 | 44.94635 | 39.02625 | 2454 ft | 163 kts | 53° |
| 2026-05-07 22:05 | 44.95323 | 39.03894 | 2256 ft | 162 kts | 53° |
| 2026-05-07 22:05 | 44.96005 | 39.05152 | 2069 ft | 161 kts | 52° |
| 2026-05-07 22:05 | 44.96685 | 39.06405 | 1866 ft | 160 kts | 52° |
| 2026-05-07 22:05 | 44.97361 | 39.07651 | 1670 ft | 160 kts | 52° |
| 2026-05-07 22:06 | 44.98037 | 39.08897 | 1476 ft | 160 kts | 52° |
| 2026-05-07 22:06 | 44.98712 | 39.10141 | 1282 ft | 160 kts | 51° |
| 2026-05-07 22:06 | 44.99387 | 39.11385 | 1089 ft | 159 kts | 51° |
| 2026-05-07 22:06 | 45.00057 | 39.12618 | 888 ft | 157 kts | 50° |
| 2026-05-07 22:07 | 45.00700 | 39.13810 | 768 ft | 154 kts | 52° |
| 2026-05-07 22:07 | 45.01358 | 39.15023 | 532 ft | 157 kts | 50° |
| 2026-05-07 22:07 | 45.02020 | 39.16229 | 297 ft | 153 kts | 52° |
| 2026-05-07 22:07 | 45.02659 | 39.17399 | 140 ft | 151 kts | 51° |
| 2026-05-07 22:08 | 45.03249 | 39.18495 | 112 ft | 119 kts | 53° |
| 2026-05-07 22:08 | 45.03625 | 39.19193 | 116 ft | 63 kts | 53° |
| 2026-05-07 22:08 | 45.03881 | 39.19656 | 115 ft | 57 kts | 52° |
| 2026-05-07 22:08 | 45.04112 | 39.20079 | 117 ft | 52 kts | 52° |
| 2026-05-07 22:09 | 45.04213 | 39.20263 | 118 ft | 4 kts | 52° |